createdAt,value
2022-12-18T00:00:24.926Z,86.0
2022-12-18T00:01:25.123Z,86.0
2022-12-18T00:02:24.951Z,86.0
2022-12-18T00:03:25.474Z,86.0
2022-12-18T00:04:25.263Z,85.7
2022-12-18T00:05:24.978Z,85.7
2022-12-18T00:06:25.005Z,85.7
2022-12-18T00:07:24.989Z,85.7
2022-12-18T00:08:25.015Z,85.7
2022-12-18T00:09:40.614Z,85.8
2022-12-18T00:10:25.033Z,85.7
2022-12-18T00:11:25.052Z,85.5
2022-12-18T00:12:25.078Z,85.6
2022-12-18T00:13:28.011Z,85.6
2022-12-18T00:14:25.091Z,85.8
2022-12-18T00:15:25.110Z,85.8
2022-12-18T00:16:25.411Z,85.8
2022-12-18T00:17:25.130Z,85.7
2022-12-18T00:18:25.151Z,85.8
2022-12-18T00:19:25.163Z,85.8
2022-12-18T00:20:25.176Z,85.6
2022-12-18T00:21:25.197Z,85.7
2022-12-18T00:22:25.210Z,85.6
2022-12-18T00:23:25.225Z,85.5
2022-12-18T00:24:25.287Z,85.5
2022-12-18T00:25:25.238Z,85.6
2022-12-18T00:26:25.249Z,85.6
2022-12-18T00:27:25.256Z,85.6
2022-12-18T00:28:25.262Z,85.5
2022-12-18T00:29:25.277Z,85.6
2022-12-18T00:30:25.280Z,85.6
2022-12-18T00:31:26.479Z,85.2
2022-12-18T00:32:25.382Z,85.3
2022-12-18T00:33:25.293Z,85.5
2022-12-18T00:34:25.315Z,85.3
2022-12-18T00:35:25.327Z,85.1
2022-12-18T00:36:25.355Z,85.2
2022-12-18T00:37:25.366Z,84.9
2022-12-18T00:38:25.357Z,85.1
2022-12-18T00:39:25.370Z,85.4
2022-12-18T00:40:25.383Z,85.5
2022-12-18T00:41:25.407Z,85.6
2022-12-18T00:42:25.409Z,85.6
2022-12-18T00:43:25.414Z,85.6
2022-12-18T00:44:25.417Z,85.4
2022-12-18T00:45:25.599Z,85.5
2022-12-18T00:46:25.444Z,85.6
2022-12-18T00:47:25.450Z,85.6
2022-12-18T00:48:25.466Z,85.5
2022-12-18T00:49:25.476Z,85.6
2022-12-18T00:50:25.484Z,85.4
2022-12-18T00:51:25.492Z,85.4
2022-12-18T00:52:25.504Z,85.5
2022-12-18T00:53:25.507Z,85.6
2022-12-18T00:54:25.522Z,85.6
2022-12-18T00:55:25.544Z,85.7
2022-12-18T00:56:25.555Z,85.6
2022-12-18T00:57:25.570Z,85.7
2022-12-18T00:58:25.573Z,85.6
2022-12-18T00:59:25.581Z,85.5
2022-12-18T01:00:25.602Z,85.5
2022-12-18T01:01:26.068Z,85.6
2022-12-18T01:02:26.055Z,85.2
2022-12-18T01:03:25.631Z,85.5
2022-12-18T01:04:25.641Z,85.6
2022-12-18T01:05:25.659Z,85.6
2022-12-18T01:06:25.669Z,85.5
2022-12-18T01:07:25.671Z,85.5
2022-12-18T01:08:25.695Z,85.5
2022-12-18T01:26:26.344Z,85.0
2022-12-18T01:27:26.176Z,85.2
2022-12-18T01:28:25.996Z,84.8
2022-12-18T01:29:25.995Z,85.1
2022-12-18T01:30:26.021Z,85.3
2022-12-18T01:31:26.297Z,84.9
2022-12-18T01:32:26.043Z,85.3
2022-12-18T01:33:26.060Z,85.4
2022-12-18T01:34:26.080Z,85.2
2022-12-18T01:35:26.084Z,85.2
2022-12-18T01:36:26.092Z,85.4
2022-12-18T01:37:26.101Z,85.2
2022-12-18T01:38:26.114Z,85.3
2022-12-18T01:39:26.124Z,85.1
2022-12-18T01:40:26.141Z,85.3
2022-12-18T01:41:26.138Z,85.4
2022-12-18T01:42:26.148Z,85.1
2022-12-18T01:43:26.159Z,85.2
2022-12-18T01:44:26.168Z,85.2
2022-12-18T01:45:26.509Z,85.1
2022-12-18T01:46:26.200Z,85.2
2022-12-18T01:47:26.202Z,85.2
2022-12-18T01:48:26.204Z,85.2
2022-12-18T01:49:26.212Z,85.1
2022-12-18T01:50:26.284Z,84.7
2022-12-18T01:51:26.225Z,84.7
2022-12-18T01:52:26.234Z,84.8
2022-12-18T01:53:26.249Z,85.0
2022-12-18T01:54:26.252Z,84.9
2022-12-18T01:55:26.271Z,84.9
2022-12-18T01:56:26.280Z,84.7
2022-12-18T01:57:26.281Z,84.8
2022-12-18T01:58:26.418Z,84.9
2022-12-18T01:59:26.321Z,85.0
2022-12-18T02:00:26.324Z,85.0
2022-12-18T02:01:26.939Z,85.1
2022-12-18T02:02:26.791Z,85.0
2022-12-18T02:03:26.608Z,84.8
2022-12-18T02:04:26.536Z,84.9
2022-12-18T02:05:26.389Z,84.8
2022-12-18T02:06:26.395Z,84.7
2022-12-18T02:07:26.415Z,84.8
2022-12-18T02:08:26.423Z,84.8
2022-12-18T02:09:26.438Z,84.6
2022-12-18T02:10:26.903Z,84.8
2022-12-18T02:11:26.458Z,84.7
2022-12-18T02:12:26.476Z,84.8
2022-12-18T02:13:26.484Z,84.4
2022-12-18T02:14:26.502Z,84.6
2022-12-18T02:15:26.505Z,84.7
2022-12-18T02:16:26.763Z,84.5
2022-12-18T02:17:26.545Z,84.6
2022-12-18T02:18:26.551Z,84.7
2022-12-18T02:19:26.565Z,84.6
2022-12-18T02:20:26.576Z,84.6
2022-12-18T02:21:26.578Z,84.7
2022-12-18T02:22:26.582Z,84.5
2022-12-18T02:23:26.595Z,84.5
2022-12-18T02:24:26.610Z,84.6
2022-12-18T02:25:26.603Z,84.5
2022-12-18T02:26:26.622Z,84.6
2022-12-18T02:27:26.623Z,84.4
2022-12-18T02:28:26.637Z,84.4
2022-12-18T02:29:26.644Z,84.3
2022-12-18T02:30:26.787Z,84.3
2022-12-18T02:31:26.673Z,84.4
2022-12-18T02:32:26.680Z,84.2
2022-12-18T02:33:26.692Z,84.3
2022-12-18T02:34:26.704Z,84.4
2022-12-18T02:35:26.724Z,84.3
2022-12-18T02:36:26.734Z,84.2
2022-12-18T02:37:26.741Z,84.1
2022-12-18T02:38:26.760Z,84.1
2022-12-18T02:39:26.777Z,84.2
2022-12-18T02:40:26.784Z,84.2
2022-12-18T02:41:26.798Z,84.1
2022-12-18T02:42:26.806Z,84.2
2022-12-18T02:43:26.822Z,84.0
2022-12-18T02:44:26.838Z,83.7
2022-12-18T02:45:26.852Z,83.8
2022-12-18T02:46:26.856Z,84.0
2022-12-18T02:47:26.876Z,84.0
2022-12-18T02:48:26.877Z,84.2
2022-12-18T02:49:26.882Z,84.2
2022-12-18T02:50:26.899Z,84.1
2022-12-18T02:51:26.913Z,84.1
2022-12-18T02:52:27.869Z,83.8
2022-12-18T02:53:26.941Z,83.8
2022-12-18T02:54:26.952Z,84.0
2022-12-18T02:55:26.963Z,84.0
2022-12-18T02:56:26.984Z,83.8
2022-12-18T02:57:26.982Z,83.9
2022-12-18T02:58:26.991Z,83.8
2022-12-18T02:59:27.003Z,83.9
2022-12-18T03:00:27.024Z,83.9
2022-12-18T03:01:27.529Z,83.9
2022-12-18T03:02:27.720Z,84.0
2022-12-18T03:03:27.270Z,83.5
2022-12-18T03:04:27.049Z,83.7
2022-12-18T03:05:27.053Z,84.0
2022-12-18T03:06:27.063Z,84.1
2022-12-18T03:07:27.093Z,84.2
2022-12-18T03:08:27.094Z,84.1
2022-12-18T03:09:27.591Z,83.6
2022-12-18T03:10:27.122Z,84.0
2022-12-18T03:11:27.121Z,84.1
2022-12-18T03:12:27.157Z,84.0
2022-12-18T03:13:27.144Z,83.9
2022-12-18T03:14:27.163Z,83.7
2022-12-18T03:15:27.166Z,83.9
2022-12-18T03:16:27.448Z,83.9
2022-12-18T03:17:27.195Z,84.1
2022-12-18T03:18:27.221Z,83.8
2022-12-18T03:19:27.230Z,84.0
2022-12-18T03:20:27.257Z,84.1
2022-12-18T03:21:27.275Z,83.8
2022-12-18T03:22:27.288Z,83.9
2022-12-18T03:23:27.309Z,83.8
2022-12-18T03:24:27.317Z,84.0
2022-12-18T03:25:27.326Z,83.8
2022-12-18T03:26:27.341Z,83.7
2022-12-18T03:27:27.365Z,83.7
2022-12-18T03:28:27.366Z,83.7
2022-12-18T03:29:27.408Z,83.8
2022-12-18T03:30:27.398Z,83.4
2022-12-18T03:31:27.694Z,83.7
2022-12-18T03:32:27.424Z,83.8
2022-12-18T03:33:27.440Z,83.9
2022-12-18T03:34:27.454Z,83.6
2022-12-18T03:35:27.456Z,83.8
2022-12-18T03:36:27.452Z,83.9
2022-12-18T03:37:27.478Z,84.0
2022-12-18T03:38:27.507Z,83.8
2022-12-18T03:39:27.508Z,83.8
2022-12-18T03:40:27.521Z,83.8
2022-12-18T03:41:27.528Z,83.7
2022-12-18T03:42:27.544Z,83.6
2022-12-18T03:43:27.569Z,83.5
2022-12-18T03:44:27.574Z,83.8
2022-12-18T03:45:27.592Z,83.7
2022-12-18T03:46:27.802Z,83.6
2022-12-18T03:47:27.614Z,83.7
2022-12-18T03:48:27.627Z,83.7
2022-12-18T03:49:27.626Z,83.6
2022-12-18T03:50:27.643Z,83.7
2022-12-18T03:51:27.668Z,83.5
2022-12-18T03:52:27.677Z,83.5
2022-12-18T03:53:27.685Z,83.5
2022-12-18T03:54:27.695Z,83.5
2022-12-18T03:55:27.709Z,83.6
2022-12-18T03:56:27.732Z,83.3
2022-12-18T03:57:28.770Z,83.5
2022-12-18T03:58:27.757Z,83.5
2022-12-18T03:59:27.769Z,83.5
2022-12-18T04:00:27.783Z,83.1
2022-12-18T04:01:28.104Z,83.2
2022-12-18T04:02:28.153Z,83.2
2022-12-18T04:03:28.052Z,83.5
2022-12-18T04:04:27.822Z,83.5
2022-12-18T04:05:27.862Z,83.3
2022-12-18T04:06:27.866Z,83.2
2022-12-18T04:07:27.878Z,83.5
2022-12-18T04:08:27.905Z,83.4
2022-12-18T04:09:27.916Z,83.5
2022-12-18T04:10:27.937Z,83.5
2022-12-18T04:11:27.938Z,83.4
2022-12-18T04:12:27.956Z,83.5
2022-12-18T04:13:27.975Z,83.4
2022-12-18T04:14:27.982Z,83.4
2022-12-18T04:15:28.172Z,83.4
2022-12-18T04:16:27.994Z,83.5
2022-12-18T04:17:28.005Z,83.4
2022-12-18T04:18:28.554Z,83.4
2022-12-18T04:19:28.020Z,83.4
2022-12-18T04:20:28.027Z,83.5
2022-12-18T04:21:28.060Z,83.5
2022-12-18T04:22:28.056Z,83.5
2022-12-18T04:23:28.073Z,83.4
2022-12-18T04:24:28.093Z,83.4
2022-12-18T04:25:28.100Z,83.3
2022-12-18T04:26:28.105Z,83.4
2022-12-18T04:27:28.124Z,83.6
2022-12-18T04:28:28.138Z,83.6
2022-12-18T04:29:28.142Z,83.5
2022-12-18T04:30:28.154Z,83.4
2022-12-18T04:31:28.373Z,83.5
2022-12-18T04:32:28.187Z,83.6
2022-12-18T04:33:28.196Z,83.4
2022-12-18T04:34:28.217Z,83.4
2022-12-18T04:35:28.223Z,83.4
2022-12-18T04:36:28.240Z,83.5
2022-12-18T04:37:28.252Z,83.3
2022-12-18T04:38:28.267Z,83.5
2022-12-18T04:39:28.281Z,83.5
2022-12-18T04:40:28.292Z,83.6
2022-12-18T04:41:28.301Z,83.6
2022-12-18T04:42:28.303Z,83.5
2022-12-18T04:43:28.549Z,83.5
2022-12-18T04:44:28.333Z,83.3
2022-12-18T04:45:28.348Z,83.4
2022-12-18T04:46:28.652Z,83.4
2022-12-18T04:47:28.380Z,83.5
2022-12-18T04:48:28.385Z,83.5
2022-12-18T04:49:28.406Z,83.6
2022-12-18T04:50:28.416Z,83.2
2022-12-18T04:51:28.440Z,83.2
2022-12-18T04:52:28.446Z,83.3
2022-12-18T04:53:28.465Z,83.1
2022-12-18T04:54:28.481Z,83.0
2022-12-18T04:55:28.496Z,83.0
2022-12-18T04:56:28.513Z,83.2
2022-12-18T04:57:28.526Z,83.3
2022-12-18T04:58:28.525Z,83.0
2022-12-18T04:59:28.528Z,83.3
2022-12-18T05:00:29.255Z,83.2
2022-12-18T05:01:35.456Z,83.4
2022-12-18T05:02:28.968Z,83.4
2022-12-18T05:03:28.815Z,83.5
2022-12-18T05:04:28.595Z,83.4
2022-12-18T05:05:28.610Z,83.6
2022-12-18T05:06:28.618Z,83.6
2022-12-18T05:07:28.635Z,83.6
2022-12-18T05:08:28.643Z,83.5
2022-12-18T05:09:28.664Z,83.5
2022-12-18T05:10:38.643Z,83.5
2022-12-18T05:11:28.693Z,83.4
2022-12-18T05:12:28.709Z,83.3
2022-12-18T05:13:28.842Z,83.1
2022-12-18T05:14:28.727Z,83.2
2022-12-18T05:15:29.836Z,83.3
2022-12-18T05:16:29.113Z,83.2
2022-12-18T05:17:28.769Z,83.3
2022-12-18T05:18:28.814Z,83.1
2022-12-18T05:19:28.788Z,83.2
2022-12-18T05:20:29.482Z,83.1
2022-12-18T05:21:28.822Z,83.2
2022-12-18T05:22:29.155Z,83.3
2022-12-18T05:23:28.832Z,83.2
2022-12-18T05:24:28.903Z,83.2
2022-12-18T05:25:29.644Z,83.0
2022-12-18T05:26:28.876Z,83.1
2022-12-18T05:27:28.908Z,83.1
2022-12-18T05:28:28.896Z,83.1
2022-12-18T05:29:28.921Z,83.1
2022-12-18T05:30:28.925Z,83.1
2022-12-18T05:31:29.177Z,83.2
2022-12-18T05:32:28.945Z,83.1
2022-12-18T05:33:28.959Z,83.2
2022-12-18T05:34:28.966Z,83.2
2022-12-18T05:35:29.790Z,83.2
2022-12-18T05:36:28.989Z,83.1
2022-12-18T05:37:29.010Z,83.1
2022-12-18T05:38:29.027Z,83.2
2022-12-18T05:39:29.009Z,83.3
2022-12-18T05:40:30.688Z,83.0
2022-12-18T05:41:29.034Z,83.0
2022-12-18T05:42:29.072Z,83.1
2022-12-18T05:43:29.075Z,83.2
2022-12-18T05:44:29.085Z,83.2
2022-12-18T05:45:29.118Z,83.4
2022-12-18T05:46:29.275Z,83.4
2022-12-18T05:47:29.132Z,83.3
2022-12-18T05:48:29.125Z,83.2
2022-12-18T05:49:29.128Z,83.2
2022-12-18T05:50:29.149Z,83.3
2022-12-18T05:51:29.164Z,83.3
2022-12-18T05:52:29.186Z,83.3
2022-12-18T05:53:29.195Z,83.3
2022-12-18T05:54:29.208Z,83.1
2022-12-18T05:55:29.211Z,83.2
2022-12-18T05:56:29.219Z,83.2
2022-12-18T05:57:29.250Z,83.2
2022-12-18T05:58:29.252Z,83.1
2022-12-18T05:59:29.276Z,83.2
2022-12-18T06:00:29.290Z,82.9
2022-12-18T06:01:29.421Z,83.0
2022-12-18T06:02:29.750Z,83.1
2022-12-18T06:03:34.447Z,83.2
2022-12-18T06:04:29.321Z,83.1
2022-12-18T06:05:29.316Z,83.0
2022-12-18T06:06:29.319Z,83.0
2022-12-18T06:07:29.328Z,83.0
2022-12-18T06:08:29.479Z,83.2
2022-12-18T06:09:29.372Z,83.1
2022-12-18T06:10:29.395Z,83.2
2022-12-18T06:11:29.392Z,83.2
2022-12-18T06:12:29.414Z,83.2
2022-12-18T06:13:29.429Z,83.1
2022-12-18T06:14:29.448Z,83.2
2022-12-18T06:15:29.454Z,83.2
2022-12-18T06:16:29.966Z,83.2
2022-12-18T06:17:29.490Z,83.0
2022-12-18T06:18:29.504Z,82.9
2022-12-18T06:19:29.512Z,83.1
2022-12-18T06:20:34.285Z,82.9
2022-12-18T06:21:29.551Z,83.1
2022-12-18T06:22:29.575Z,83.1
2022-12-18T06:23:29.586Z,83.2
2022-12-18T06:24:29.599Z,83.2
2022-12-18T06:25:29.650Z,82.9
2022-12-18T06:26:29.625Z,83.0
2022-12-18T06:27:29.638Z,83.2
2022-12-18T06:28:29.684Z,83.1
2022-12-18T06:29:29.653Z,83.0
2022-12-18T06:30:29.666Z,83.1
2022-12-18T06:31:30.951Z,83.1
2022-12-18T06:32:29.694Z,83.1
2022-12-18T06:33:29.739Z,83.0
2022-12-18T06:34:29.708Z,83.0
2022-12-18T06:35:29.744Z,83.0
2022-12-18T06:36:29.736Z,83.0
2022-12-18T06:37:29.731Z,83.0
2022-12-18T06:38:29.727Z,83.0
2022-12-18T06:39:29.731Z,83.1
2022-12-18T06:40:29.762Z,83.0
2022-12-18T06:41:29.776Z,82.9
2022-12-18T06:42:29.788Z,83.0
2022-12-18T06:43:29.795Z,82.9
2022-12-18T06:44:29.805Z,83.0
2022-12-18T06:45:30.066Z,82.8
2022-12-18T06:46:29.829Z,83.0
2022-12-18T06:47:29.831Z,83.0
2022-12-18T06:48:29.821Z,83.0
2022-12-18T06:49:30.978Z,82.8
2022-12-18T06:50:30.804Z,82.9
2022-12-18T06:51:29.858Z,82.7
2022-12-18T06:52:29.858Z,82.8
2022-12-18T06:53:29.859Z,82.8
2022-12-18T06:54:29.872Z,82.7
2022-12-18T06:55:29.878Z,82.9
2022-12-18T06:56:29.876Z,82.9
2022-12-18T06:57:29.893Z,82.9
2022-12-18T06:58:29.903Z,82.9
2022-12-18T06:59:29.902Z,82.9
2022-12-18T07:00:30.199Z,82.8
2022-12-18T07:01:30.287Z,82.8
2022-12-18T07:02:30.324Z,82.8
2022-12-18T07:03:29.927Z,82.8
2022-12-18T07:04:29.940Z,82.7
2022-12-18T07:05:29.933Z,82.6
2022-12-18T07:06:29.953Z,82.7
2022-12-18T07:07:29.968Z,82.6
2022-12-18T07:08:29.966Z,82.8
2022-12-18T07:09:29.965Z,82.8
2022-12-18T07:10:30.248Z,82.8
2022-12-18T07:11:29.996Z,82.8
2022-12-18T07:12:30.002Z,82.7
2022-12-18T07:13:30.005Z,82.8
2022-12-18T07:14:30.039Z,82.8
2022-12-18T07:15:30.021Z,82.6
2022-12-18T07:16:30.245Z,82.7
2022-12-18T07:17:30.029Z,82.7
2022-12-18T07:18:30.025Z,82.4
2022-12-18T07:19:31.790Z,82.7
2022-12-18T07:20:30.208Z,82.7
2022-12-18T07:21:30.057Z,82.5
2022-12-18T07:22:30.054Z,82.5
2022-12-18T07:23:30.064Z,82.5
2022-12-18T07:24:30.077Z,82.5
2022-12-18T07:25:30.092Z,82.6
2022-12-18T07:26:30.085Z,82.6
2022-12-18T07:27:30.092Z,82.5
2022-12-18T07:28:30.111Z,82.5
2022-12-18T07:29:30.120Z,82.2
2022-12-18T07:30:30.193Z,82.5
2022-12-18T07:31:30.328Z,82.4
2022-12-18T07:32:30.149Z,82.5
2022-12-18T07:33:30.942Z,82.3
2022-12-18T07:34:30.166Z,82.2
2022-12-18T07:35:30.144Z,82.1
2022-12-18T07:36:30.195Z,82.3
2022-12-18T07:37:30.179Z,82.3
2022-12-18T07:38:31.670Z,82.3
2022-12-18T07:39:30.198Z,82.3
2022-12-18T07:40:30.172Z,82.1
2022-12-18T07:41:30.181Z,82.1
2022-12-18T07:42:30.197Z,82.4
2022-12-18T07:43:30.215Z,82.3
2022-12-18T07:44:30.238Z,82.3
2022-12-18T07:45:30.382Z,82.4
2022-12-18T07:46:30.224Z,82.5
2022-12-18T07:47:31.046Z,82.7
2022-12-18T07:48:30.226Z,82.5
2022-12-18T07:49:30.224Z,82.5
2022-12-18T07:50:30.232Z,82.6
2022-12-18T07:51:30.251Z,82.4
2022-12-18T07:52:30.998Z,82.4
2022-12-18T07:53:30.255Z,82.4
2022-12-18T07:54:30.263Z,82.2
2022-12-18T07:56:18.247Z,82.2
2022-12-18T07:56:31.854Z,82.0
2022-12-18T07:57:51.935Z,82.3
2022-12-18T07:58:30.309Z,82.7
2022-12-18T07:59:30.318Z,83.2
2022-12-18T08:00:30.305Z,83.3
2022-12-18T08:01:30.790Z,83.8
2022-12-18T08:02:30.681Z,84.1
2022-12-18T08:03:30.329Z,84.1
2022-12-18T08:04:30.343Z,84.0
2022-12-18T08:05:30.340Z,83.4
2022-12-18T08:06:30.344Z,83.2
2022-12-18T08:07:31.902Z,82.8
2022-12-18T08:08:30.369Z,82.2
2022-12-18T08:09:30.375Z,82.3
2022-12-18T08:10:30.368Z,82.2
2022-12-18T08:11:30.375Z,82.1
2022-12-18T08:12:30.387Z,81.7
2022-12-18T08:13:30.387Z,81.6
2022-12-18T08:14:30.426Z,81.4
2022-12-18T08:15:30.403Z,81.3
2022-12-18T08:16:30.538Z,81.3
2022-12-18T08:17:30.420Z,81.0
2022-12-18T08:18:30.544Z,81.3
2022-12-18T08:19:30.429Z,81.3
2022-12-18T08:20:30.453Z,80.6
2022-12-18T08:21:30.446Z,80.8
2022-12-18T08:22:30.452Z,80.5
2022-12-18T08:23:30.455Z,80.1
2022-12-18T08:24:30.463Z,80.5
2022-12-18T08:25:30.456Z,80.4
2022-12-18T08:26:30.469Z,80.4
2022-12-18T08:27:30.850Z,80.5
2022-12-18T08:28:30.484Z,80.5
2022-12-18T08:29:30.476Z,80.1
2022-12-18T08:30:30.804Z,80.2
2022-12-18T08:31:30.907Z,80.0
2022-12-18T08:32:30.510Z,80.0
2022-12-18T08:33:30.546Z,80.0
2022-12-18T08:34:30.511Z,80.2
2022-12-18T08:35:44.148Z,79.5
2022-12-18T08:36:30.546Z,80.0
2022-12-18T08:37:30.573Z,80.0
2022-12-18T08:38:30.578Z,79.6
2022-12-18T08:39:30.572Z,79.8
2022-12-18T08:40:30.589Z,79.7
2022-12-18T08:41:31.358Z,79.9
2022-12-18T08:42:30.585Z,80.0
2022-12-18T08:43:30.623Z,79.8
2022-12-18T08:44:30.608Z,79.9
2022-12-18T08:45:30.645Z,79.8
2022-12-18T08:46:31.833Z,79.8
2022-12-18T08:47:30.673Z,79.7
2022-12-18T08:48:30.635Z,79.6
2022-12-18T08:49:30.642Z,79.4
2022-12-18T08:50:30.648Z,79.4
2022-12-18T08:51:31.000Z,79.4
2022-12-18T08:52:30.665Z,79.2
2022-12-18T08:53:36.151Z,79.4
2022-12-18T08:54:30.662Z,79.3
2022-12-18T08:55:30.687Z,79.3
2022-12-18T08:56:30.682Z,79.2
2022-12-18T08:57:30.696Z,79.2
2022-12-18T08:58:30.720Z,79.2
2022-12-18T08:59:30.698Z,79.1
2022-12-18T09:00:30.722Z,78.9
2022-12-18T09:01:32.279Z,79.0
2022-12-18T09:02:31.455Z,78.7
2022-12-18T09:03:31.101Z,78.3
2022-12-18T09:04:30.730Z,78.8
2022-12-18T09:05:30.808Z,78.9
2022-12-18T09:06:30.763Z,78.8
2022-12-18T09:07:30.999Z,79.1
2022-12-18T09:08:30.751Z,78.9
2022-12-18T09:09:30.796Z,78.8
2022-12-18T09:10:30.763Z,78.9
2022-12-18T09:11:30.769Z,78.5
2022-12-18T09:12:30.783Z,78.8
2022-12-18T09:13:30.779Z,78.6
2022-12-18T09:14:30.799Z,78.1
2022-12-18T09:15:30.794Z,78.3
2022-12-18T09:16:33.262Z,78.3
2022-12-18T09:17:31.071Z,78.3
2022-12-18T09:18:30.836Z,78.0
2022-12-18T09:19:30.831Z,78.0
2022-12-18T09:20:30.845Z,77.9
2022-12-18T09:21:32.676Z,77.8
2022-12-18T09:22:30.902Z,77.5
2022-12-18T09:23:30.855Z,77.8
2022-12-18T09:24:30.863Z,77.5
2022-12-18T09:25:30.879Z,78.0
2022-12-18T09:26:30.890Z,78.1
2022-12-18T09:27:30.880Z,78.2
2022-12-18T09:28:30.903Z,78.0
2022-12-18T09:29:30.896Z,78.1
2022-12-18T09:30:31.119Z,78.2
2022-12-18T09:31:30.921Z,77.8
2022-12-18T09:32:30.918Z,77.6
2022-12-18T09:33:31.470Z,77.3
2022-12-18T09:34:30.961Z,77.3
2022-12-18T09:35:30.942Z,77.1
2022-12-18T09:36:30.947Z,76.5
2022-12-18T09:37:30.982Z,76.9
2022-12-18T09:38:30.975Z,76.7
2022-12-18T09:39:30.972Z,76.8
2022-12-18T09:40:30.981Z,76.7
2022-12-18T09:41:30.994Z,76.1
2022-12-18T09:42:30.990Z,76.7
2022-12-18T09:43:31.016Z,76.8
2022-12-18T09:44:31.251Z,76.5
2022-12-18T09:45:31.009Z,76.7
2022-12-18T09:46:31.290Z,76.7
2022-12-18T09:47:31.038Z,76.5
2022-12-18T09:48:31.062Z,76.3
2022-12-18T09:49:31.050Z,76.1
2022-12-18T09:50:31.054Z,76.3
2022-12-18T09:51:31.112Z,76.4
2022-12-18T09:52:31.089Z,76.2
2022-12-18T09:53:31.074Z,75.9
2022-12-18T09:54:31.085Z,76.0
2022-12-18T09:55:37.821Z,76.0
2022-12-18T09:56:31.123Z,75.8
2022-12-18T09:57:31.110Z,75.5
2022-12-18T09:58:31.116Z,75.6
2022-12-18T09:59:31.141Z,75.3
2022-12-18T10:00:31.146Z,75.1
2022-12-18T10:01:45.868Z,75.1
2022-12-18T10:02:31.607Z,75.2
2022-12-18T10:03:31.168Z,75.2
2022-12-18T10:04:33.099Z,74.6
2022-12-18T10:05:31.180Z,74.7
2022-12-18T10:06:31.187Z,74.7
2022-12-18T10:07:31.207Z,74.8
2022-12-18T10:08:31.202Z,74.3
2022-12-18T10:09:32.267Z,74.0
2022-12-18T10:10:31.225Z,74.3
2022-12-18T10:11:31.256Z,74.2
2022-12-18T10:12:31.230Z,74.0
2022-12-18T10:13:31.244Z,73.6
2022-12-18T10:14:31.245Z,73.7
2022-12-18T10:15:31.523Z,73.3
2022-12-18T10:16:31.256Z,73.9
2022-12-18T10:17:31.268Z,72.9
2022-12-18T10:18:33.383Z,73.6
2022-12-18T10:19:31.268Z,73.3
2022-12-18T10:20:31.288Z,73.1
2022-12-18T10:21:31.292Z,72.9
2022-12-18T10:22:31.307Z,72.9
2022-12-18T10:23:31.307Z,72.7
2022-12-18T10:24:31.334Z,72.8
2022-12-18T10:25:31.324Z,73.0
2022-12-18T10:26:31.336Z,72.9
2022-12-18T10:27:33.437Z,72.8
2022-12-18T10:28:31.344Z,72.1
2022-12-18T10:29:31.349Z,72.4
2022-12-18T10:30:31.356Z,72.5
2022-12-18T10:31:31.522Z,71.9
2022-12-18T10:32:31.392Z,71.7
2022-12-18T10:33:31.397Z,71.8
2022-12-18T10:34:31.413Z,71.6
2022-12-18T10:35:31.416Z,71.4
2022-12-18T10:36:31.420Z,71.6
2022-12-18T10:37:32.180Z,72.4
2022-12-18T10:38:31.433Z,72.1
2022-12-18T10:39:31.456Z,71.9
2022-12-18T10:40:31.445Z,71.3
2022-12-18T10:41:31.497Z,71.5
2022-12-18T10:42:31.462Z,72.0
2022-12-18T10:43:31.465Z,72.0
2022-12-18T10:44:31.473Z,71.7
2022-12-18T10:45:31.493Z,71.4
2022-12-18T10:46:31.723Z,71.7
2022-12-18T10:47:31.502Z,72.0
2022-12-18T10:48:31.512Z,71.5
2022-12-18T10:49:31.522Z,71.0
2022-12-18T10:51:32.060Z,70.0
2022-12-18T10:52:31.548Z,70.4
2022-12-18T10:53:31.575Z,70.0
2022-12-18T10:54:31.552Z,70.5
2022-12-18T10:55:31.566Z,70.1
2022-12-18T10:56:31.584Z,70.4
2022-12-18T10:57:31.603Z,70.3
2022-12-18T10:58:31.597Z,69.3
2022-12-18T10:59:31.594Z,69.8
2022-12-18T11:00:31.639Z,69.8
2022-12-18T11:01:31.896Z,69.6
2022-12-18T11:02:32.535Z,69.1
2022-12-18T11:03:32.033Z,68.8
2022-12-18T11:04:31.648Z,68.2
2022-12-18T11:05:31.661Z,68.8
2022-12-18T11:06:31.672Z,69.1
2022-12-18T11:07:31.657Z,67.7
2022-12-18T11:08:31.671Z,68.4
2022-12-18T11:09:31.676Z,67.9
2022-12-18T11:10:31.686Z,67.9
2022-12-18T11:11:31.693Z,68.2
2022-12-18T11:12:31.723Z,68.0
2022-12-18T11:13:31.705Z,68.1
2022-12-18T11:14:31.716Z,68.2
2022-12-18T11:15:31.741Z,67.8
2022-12-18T11:16:32.192Z,67.8
2022-12-18T11:17:32.078Z,67.7
2022-12-18T11:18:31.741Z,68.5
2022-12-18T11:19:31.753Z,67.8
2022-12-18T11:20:31.777Z,68.4
2022-12-18T11:21:31.765Z,68.9
2022-12-18T11:22:31.806Z,69.2
2022-12-18T11:23:31.775Z,69.0
2022-12-18T11:24:31.792Z,68.9
2022-12-18T11:25:36.073Z,68.7
2022-12-18T11:26:31.806Z,69.1
2022-12-18T11:27:31.813Z,68.8
2022-12-18T11:28:31.824Z,68.5
2022-12-18T11:29:31.829Z,68.5
2022-12-18T11:30:31.848Z,68.7
2022-12-18T11:31:32.030Z,67.7
2022-12-18T11:32:31.848Z,68.2
2022-12-18T11:33:31.848Z,68.3
2022-12-18T11:34:31.885Z,67.9
2022-12-18T11:35:33.386Z,68.1
2022-12-18T11:36:31.933Z,67.8
2022-12-18T11:37:31.895Z,68.1
2022-12-18T11:38:31.886Z,67.2
2022-12-18T11:39:31.945Z,67.2
2022-12-18T11:40:41.685Z,66.8
2022-12-18T11:41:31.899Z,66.6
2022-12-18T11:42:31.913Z,66.9
2022-12-18T11:43:31.931Z,67.0
2022-12-18T11:44:31.917Z,67.1
2022-12-18T11:45:31.946Z,66.6
2022-12-18T11:46:32.129Z,66.8
2022-12-18T11:47:31.950Z,66.0
2022-12-18T11:48:31.947Z,66.3
2022-12-18T11:49:31.967Z,66.2
2022-12-18T11:50:31.970Z,66.5
2022-12-18T11:51:31.977Z,66.5
2022-12-18T11:52:31.977Z,66.6
2022-12-18T11:53:31.986Z,66.6
2022-12-18T11:54:31.998Z,66.5
2022-12-18T11:55:32.174Z,66.4
2022-12-18T11:56:32.029Z,66.9
2022-12-18T11:57:32.008Z,67.1
2022-12-18T11:58:32.031Z,67.0
2022-12-18T11:59:32.025Z,67.1
2022-12-18T12:00:32.032Z,66.7
2022-12-18T12:01:32.328Z,66.6
2022-12-18T12:02:32.553Z,67.0
2022-12-18T12:03:32.237Z,66.9
2022-12-18T12:04:32.284Z,66.5
2022-12-18T12:05:32.076Z,66.4
2022-12-18T12:06:32.081Z,65.7
2022-12-18T12:07:32.089Z,66.1
2022-12-18T12:08:33.690Z,66.7
2022-12-18T12:09:32.091Z,66.9
2022-12-18T12:10:32.110Z,67.3
2022-12-18T12:11:32.117Z,67.4
2022-12-18T12:12:32.123Z,66.9
2022-12-18T12:13:32.133Z,66.5
2022-12-18T12:14:32.139Z,66.7
2022-12-18T12:15:32.139Z,66.8
2022-12-18T12:16:32.510Z,66.0
2022-12-18T12:17:32.770Z,66.0
2022-12-18T12:18:32.163Z,65.9
2022-12-18T12:19:32.186Z,66.4
2022-12-18T12:20:36.416Z,66.5
2022-12-18T12:21:32.202Z,65.5
2022-12-18T12:22:32.217Z,66.3
2022-12-18T12:23:32.217Z,66.0
2022-12-18T12:24:32.222Z,66.0
2022-12-18T12:25:32.281Z,66.6
2022-12-18T12:26:33.705Z,66.6
2022-12-18T12:27:32.242Z,66.5
2022-12-18T12:28:32.242Z,66.3
2022-12-18T12:29:32.266Z,66.2
2022-12-18T12:30:32.264Z,66.0
2022-12-18T12:31:32.537Z,66.5
2022-12-18T12:32:32.288Z,66.4
2022-12-18T12:33:32.283Z,66.3
2022-12-18T12:34:32.298Z,65.7
2022-12-18T12:35:32.310Z,65.9
2022-12-18T12:36:32.309Z,65.8
2022-12-18T12:37:32.317Z,66.2
2022-12-18T12:38:32.339Z,65.6
2022-12-18T12:39:32.339Z,65.9
2022-12-18T12:40:56.904Z,65.8
2022-12-18T12:41:32.340Z,65.8
2022-12-18T12:42:32.352Z,66.2
2022-12-18T12:43:32.730Z,65.9
2022-12-18T12:44:32.997Z,65.2
2022-12-18T12:45:32.578Z,65.4
2022-12-18T12:46:32.384Z,66.2
2022-12-18T12:47:32.967Z,66.2
2022-12-18T12:48:32.772Z,65.9
2022-12-18T12:49:41.041Z,66.0
2022-12-18T12:50:32.745Z,66.1
2022-12-18T12:51:32.751Z,66.2
2022-12-18T12:52:32.431Z,65.7
2022-12-18T12:53:32.792Z,65.4
2022-12-18T12:54:32.456Z,64.9
2022-12-18T12:55:32.462Z,64.8
2022-12-18T12:56:33.207Z,65.6
2022-12-18T12:57:32.656Z,65.2
2022-12-18T12:58:32.508Z,65.3
2022-12-18T12:59:32.561Z,65.2
2022-12-18T13:00:32.506Z,65.2
2022-12-18T13:01:34.012Z,64.8
2022-12-18T13:02:32.748Z,64.7
2022-12-18T13:03:32.503Z,64.6
2022-12-18T13:04:32.563Z,64.6
2022-12-18T13:05:32.548Z,64.3
2022-12-18T13:06:32.886Z,64.7
2022-12-18T13:07:33.188Z,64.4
2022-12-18T13:08:37.057Z,64.6
2022-12-18T13:09:45.028Z,64.2
2022-12-18T13:10:32.929Z,64.9
2022-12-18T13:11:32.647Z,65.1
2022-12-18T13:12:35.408Z,65.4
2022-12-18T13:13:32.623Z,65.1
2022-12-18T13:14:32.591Z,65.2
2022-12-18T13:15:40.199Z,64.9
2022-12-18T13:16:32.620Z,64.8
2022-12-18T13:17:32.647Z,65.0
2022-12-18T13:18:32.627Z,64.6
2022-12-18T13:19:32.636Z,65.0
2022-12-18T13:20:33.322Z,64.5
2022-12-18T13:21:32.942Z,64.5
2022-12-18T13:22:32.653Z,64.6
2022-12-18T13:23:32.666Z,64.0
2022-12-18T13:24:32.673Z,64.3
2022-12-18T13:25:32.684Z,64.4
2022-12-18T13:26:32.958Z,64.4
2022-12-18T13:27:32.871Z,64.9
2022-12-18T13:28:32.695Z,64.5
2022-12-18T13:29:32.708Z,65.6
2022-12-18T13:30:32.709Z,64.9
2022-12-18T13:31:32.717Z,65.0
2022-12-18T13:32:32.731Z,64.6
2022-12-18T13:33:32.794Z,64.7
2022-12-18T13:34:34.708Z,65.0
2022-12-18T13:35:32.880Z,65.3
2022-12-18T13:36:32.795Z,65.3